METAR UND TAF INFORMATION

METAR FOR LECO
ADDS - METARS form results

(0447 UTC 26 June 2022)
Data provider http://aviationweather.gov/metar/data/
 
METAR text: LECO 260430Z 16004KT 9999 FEW032 10/08 Q1015 NOSIG
Conditions at: LECO (LA CORUNA/ALVEDR, ES) observed 0430 UTC 26 June 2022
Temperature: 10.0°C (50°F)
Dewpoint: 8.0°C (46°F) [RH = 87%]
Pressure (altimeter): 29.97 inches Hg (1015.0 mb)
Winds: from the SSE (160 degrees) at 5 MPH (4 knots; 2.1 m/s)
Visibility: 6 or more miles (10+ km)
Ceiling: at least 12,000 feet AGL
Clouds: few clouds at 3200 feet AGL
Weather: no significant weather observed at this time

METAR text: LECO 260400Z 17004KT 9999 FEW032 10/09 Q1015 NOSIG
Conditions at: LECO (LA CORUNA/ALVEDR, ES) observed 0400 UTC 26 June 2022
Temperature: 10.0°C (50°F)
Dewpoint: 9.0°C (48°F) [RH = 93%]
Pressure (altimeter): 29.97 inches Hg (1015.0 mb)
Winds: from the S (170 degrees) at 5 MPH (4 knots; 2.1 m/s)
Visibility: 6 or more miles (10+ km)
Ceiling: at least 12,000 feet AGL
Clouds: few clouds at 3200 feet AGL
Weather: no significant weather observed at this time

Forecast for: LECO (LA CORUNA/ALVEDR, ES)
Text: TAF LECO 260200Z 2603/2703 30009KT 9999 SCT030 TX18/2614Z TN08/2605Z
Forecast period: 0300 UTC 26 June 2022 to 0300 UTC 27 June 2022
Forecast type: FROM: standard forecast or significant change
Winds: from the WNW (300 degrees) at 10 MPH (9 knots; 4.6 m/s)
Visibility: 6 or more miles (10+ km)
Ceiling: at least 12,000 feet AGL
Clouds: scattered clouds at 3000 feet AGL
Weather: no significant weather forecast for this period
Text: PROB30
Forecast period: 0300 to 1800 UTC 26 June 2022
Forecast type: TEMPORARY: The following changes expected for less than half the time period
Visibility: 1.86 miles (2.99 km)
Ceiling: at least 12,000 feet AGL
Clouds: few clouds at 2500 feet AGL
Weather: RA SHRA  (moderate rain, rain showers)

 FLUGHAFENKARTE

 RUNWAY INFORMATION
Runway 03 Runway length 6358 ft Runway width 148 ft
Runway elevation 327 ft Runway displaced threshold 0 ft Runway heading 31
Runway 21 Runway length 6358 ft Runway width 148 ft
Runway elevation 286 ft Runway displaced threshold 0 ft Runway heading 211

 AIRPORT FREQUENCIES
Type APP Name SANTIAGO A Frequency 120.2 MHZ
Type GND Name GND Frequency 121.7 MHZ
Type TWR Name A Coruña T Frequency 118.3 MHZ

 AIRPORT NEAR NAVIGATION AIDS
Type NDB Name La Coruna Frequency 401 KHZ
Type VOR-DME Name La Coruna Frequency 115100 KHZ